Burr, Texas
Current Conditions -  °F | °C
As of 6:35 AM on Monday 20 Oct 2014 (Local Time) from KARM Reporting Station
Clear Clear  
Wind Chill: 64°   Ceiling: Unl
Heat Index: 64°   Visibility: 10mi
Dew Point: 62°   Wind: 5mph
Humidity: 94%   Direction: 50°NE
Pressure: 30"   Gusts: NA
Location:  29.2926°N, 96.034°W
Report Text: KARM 201135Z AUTO 05004KT 10SM CLR 18/17 A3000 RMK AO2 T01750165
Loading
Personal Weather Stations






























Interactive Weather Map
Tropical Storm Tracking
New forecast layout! Learn more

10-Day Weather Forecast

Advertisements
Track Severe Weather on mobile